createdAt,value
2022-08-01T00:01:18.369Z,48.40
2022-08-01T00:03:45.922Z,49.10
2022-08-01T00:06:13.493Z,49.41
2022-08-01T00:08:41.310Z,50.84
2022-08-01T00:11:10.254Z,50.30
2022-08-01T00:13:37.790Z,50.59
2022-08-01T00:16:06.890Z,50.81
2022-08-01T00:18:36.566Z,50.84
2022-08-01T00:21:05.669Z,51.09
2022-08-01T00:23:33.502Z,51.08
2022-08-01T00:26:01.357Z,50.59
2022-08-01T00:28:29.104Z,51.00
2022-08-01T00:30:56.969Z,51.01
2022-08-01T00:33:24.450Z,50.92
2022-08-01T00:35:51.963Z,50.87
2022-08-01T00:38:19.756Z,51.18
2022-08-01T00:40:47.479Z,51.38
2022-08-01T00:43:16.098Z,51.62
2022-08-01T00:45:44.087Z,51.88
2022-08-01T00:48:11.771Z,51.58
2022-08-01T00:50:39.728Z,51.71
2022-08-01T00:53:08.203Z,51.36
2022-08-01T00:55:35.933Z,49.79
2022-08-01T00:58:06.015Z,48.75
2022-08-01T01:00:52.915Z,47.71
2022-08-01T01:03:49.436Z,49.38
2022-08-01T01:06:31.930Z,49.34
2022-08-01T01:09:27.006Z,47.93
2022-08-01T01:12:37.266Z,48.42
2022-08-01T01:15:11.135Z,48.47
2022-08-01T01:18:02.981Z,45.41
2022-08-01T01:20:44.317Z,45.75
2022-08-01T01:23:51.419Z,46.15
2022-08-01T01:26:49.422Z,46.30
2022-08-01T01:29:22.158Z,44.02
2022-08-01T01:31:53.253Z,41.92
2022-08-01T01:34:22.904Z,41.85
2022-08-01T01:36:53.110Z,43.20
2022-08-01T01:39:23.200Z,42.30
2022-08-01T01:41:52.540Z,42.32
2022-08-01T01:44:20.213Z,42.13
2022-08-01T01:46:50.834Z,42.14
2022-08-01T01:49:25.027Z,40.77
2022-08-01T01:52:02.670Z,41.08
2022-08-01T01:54:37.157Z,41.34
2022-08-01T01:57:07.634Z,40.58
2022-08-01T01:59:39.672Z,40.93
2022-08-01T02:02:08.959Z,41.28
2022-08-01T02:04:40.821Z,41.17
2022-08-01T02:07:13.361Z,42.07
2022-08-01T02:09:43.933Z,41.23
2022-08-01T02:12:13.625Z,41.52
2022-08-01T02:14:43.479Z,41.41
2022-08-01T02:17:16.377Z,41.54
2022-08-01T02:19:44.502Z,41.07
2022-08-01T02:22:22.531Z,40.54
2022-08-01T02:25:09.000Z,40.55
2022-08-01T02:27:52.304Z,40.34
2022-08-01T02:30:22.106Z,40.31
2022-08-01T02:33:15.611Z,40.49
2022-08-01T02:36:30.375Z,39.92
2022-08-01T02:38:44.486Z,39.63
2022-08-01T02:41:20.097Z,40.11
2022-08-01T02:43:53.327Z,39.84
2022-08-01T02:46:40.085Z,39.61
2022-08-01T02:49:11.434Z,39.18
2022-08-01T02:51:42.104Z,40.13
2022-08-01T02:54:11.001Z,40.34
2022-08-01T02:56:41.118Z,40.50
2022-08-01T02:59:22.072Z,40.82
2022-08-01T03:01:53.043Z,41.03
2022-08-01T03:04:25.644Z,40.96
2022-08-01T03:06:58.215Z,41.43
2022-08-01T03:09:30.591Z,42.37
2022-08-01T03:12:03.852Z,42.48
2022-08-01T03:14:36.267Z,42.86
2022-08-01T03:17:06.341Z,43.51
2022-08-01T03:19:35.932Z,43.44
2022-08-01T03:22:04.678Z,44.10
2022-08-01T03:24:34.125Z,43.70
2022-08-01T03:27:03.375Z,44.34
2022-08-01T03:29:32.989Z,44.91
2022-08-01T03:32:02.558Z,44.43
2022-08-01T03:34:31.362Z,44.74
2022-08-01T03:37:30.845Z,44.17
2022-08-01T03:40:23.753Z,44.00
2022-08-01T03:42:59.224Z,43.93
2022-08-01T03:45:36.358Z,44.32
2022-08-01T03:48:11.954Z,44.63
2022-08-01T03:50:46.830Z,45.50
2022-08-01T03:53:15.444Z,44.98
2022-08-01T03:55:44.643Z,45.37
2022-08-01T03:58:14.181Z,45.33
2022-08-01T04:00:42.941Z,45.14
2022-08-01T04:03:14.535Z,45.38
2022-08-01T04:05:43.773Z,46.13
2022-08-01T04:08:11.761Z,45.51
2022-08-01T04:10:39.446Z,46.27
2022-08-01T04:13:07.142Z,46.36
2022-08-01T04:15:34.831Z,46.37
2022-08-01T04:18:02.328Z,45.98
2022-08-01T04:20:29.957Z,46.25
2022-08-01T04:22:57.637Z,45.95
2022-08-01T04:25:33.354Z,46.03
2022-08-01T04:28:06.482Z,46.29
2022-08-01T04:30:38.252Z,45.86
2022-08-01T04:33:09.107Z,46.20
2022-08-01T04:36:01.417Z,46.49
2022-08-01T04:38:29.547Z,45.95
2022-08-01T04:40:58.800Z,46.21
2022-08-01T04:43:32.817Z,46.47
2022-08-01T04:46:02.065Z,47.07
2022-08-01T04:48:32.077Z,46.78
2022-08-01T04:51:00.157Z,46.86
2022-08-01T04:53:28.866Z,47.08
2022-08-01T04:55:56.733Z,47.20
2022-08-01T04:58:24.456Z,47.45
2022-08-01T05:00:52.003Z,47.26
2022-08-01T05:03:19.844Z,47.09
2022-08-01T05:05:47.999Z,47.56
2022-08-01T05:08:15.516Z,47.11
2022-08-01T05:10:43.473Z,47.71
2022-08-01T05:13:11.985Z,47.18
2022-08-01T05:15:39.547Z,47.92
2022-08-01T05:18:08.695Z,48.30
2022-08-01T05:20:38.047Z,48.23
2022-08-01T05:23:11.006Z,48.55
2022-08-01T05:25:58.981Z,49.29
2022-08-01T05:28:26.654Z,48.98
2022-08-01T05:30:56.087Z,48.51
2022-08-01T05:33:24.182Z,48.40
2022-08-01T05:35:52.103Z,48.25
2022-08-01T05:38:19.618Z,48.00
2022-08-01T05:40:47.518Z,47.45
2022-08-01T05:43:15.058Z,47.15
2022-08-01T05:45:42.734Z,47.65
2022-08-01T05:48:10.507Z,47.24
2022-08-01T05:50:38.101Z,47.47
2022-08-01T05:53:05.581Z,45.98
2022-08-01T05:55:33.281Z,46.64
2022-08-01T05:58:00.783Z,46.07
2022-08-01T06:00:28.449Z,46.76
2022-08-01T06:02:56.172Z,47.76
2022-08-01T06:05:23.758Z,45.98
2022-08-01T06:07:51.253Z,46.67
2022-08-01T06:10:19.027Z,46.94
2022-08-01T06:12:46.546Z,46.54
2022-08-01T06:15:14.350Z,46.07
2022-08-01T06:17:42.386Z,45.32
2022-08-01T06:20:11.039Z,44.75
2022-08-01T06:22:38.743Z,44.19
2022-08-01T06:25:07.963Z,44.18
2022-08-01T06:27:36.626Z,43.56
2022-08-01T06:30:08.649Z,44.16
2022-08-01T06:32:36.343Z,44.11
2022-08-01T06:35:04.584Z,42.89
2022-08-01T06:37:33.437Z,43.74
2022-08-01T06:40:16.653Z,43.09
2022-08-01T06:42:46.782Z,42.00
2022-08-01T06:45:16.648Z,40.35
2022-08-01T06:47:50.634Z,41.51
2022-08-01T06:50:19.178Z,41.12
2022-08-01T06:52:47.056Z,40.49
2022-08-01T06:55:15.184Z,41.06
2022-08-01T06:57:53.853Z,40.93
2022-08-01T07:00:24.487Z,40.73
2022-08-01T07:02:55.098Z,40.73
2022-08-01T07:05:23.681Z,40.34
2022-08-01T07:07:51.823Z,40.62
2022-08-01T07:10:20.155Z,40.97
2022-08-01T07:12:47.626Z,39.73
2022-08-01T07:15:15.283Z,40.10
2022-08-01T07:17:43.858Z,41.36
2022-08-01T07:20:16.418Z,41.39
2022-08-01T07:22:45.396Z,41.23
2022-08-01T07:25:15.715Z,42.11
2022-08-01T07:27:43.264Z,41.73
2022-08-01T07:30:11.628Z,40.79
2022-08-01T07:32:39.118Z,40.04
2022-08-01T07:35:07.333Z,39.98
2022-08-01T07:37:48.652Z,39.55
2022-08-01T07:40:19.155Z,40.17
2022-08-01T07:42:48.299Z,41.03
2022-08-01T07:45:16.315Z,39.97
2022-08-01T07:47:44.584Z,39.26
2022-08-01T07:50:13.833Z,39.43
2022-08-01T07:52:41.467Z,40.03
2022-08-01T07:55:10.442Z,40.19
2022-08-01T07:57:39.161Z,39.05
2022-08-01T08:00:09.641Z,40.15
2022-08-01T08:02:37.187Z,40.15
2022-08-01T08:05:05.790Z,40.32
2022-08-01T08:07:34.013Z,40.58
2022-08-01T08:10:01.606Z,41.16
2022-08-01T08:12:29.907Z,41.06
2022-08-01T08:14:59.476Z,41.26
2022-08-01T08:17:27.475Z,41.62
2022-08-01T08:19:55.455Z,41.71
2022-08-01T08:22:22.972Z,42.22
2022-08-01T08:24:50.511Z,42.13
2022-08-01T08:27:19.335Z,42.27
2022-08-01T08:29:46.984Z,42.19
2022-08-01T08:32:14.554Z,42.45
2022-08-01T08:34:42.406Z,41.98
2022-08-01T08:37:10.823Z,41.74
2022-08-01T08:39:42.117Z,41.32
2022-08-01T08:42:12.746Z,41.08
2022-08-01T08:44:43.991Z,41.41
2022-08-01T08:47:19.724Z,40.75
2022-08-01T08:49:50.759Z,40.60
2022-08-01T08:52:21.785Z,40.78
2022-08-01T08:54:51.734Z,40.86
2022-08-01T08:57:21.898Z,40.87
2022-08-01T08:59:52.746Z,40.31
2022-08-01T09:02:20.961Z,40.37
2022-08-01T09:04:51.202Z,40.65
2022-08-01T09:07:18.888Z,40.99
2022-08-01T09:09:49.295Z,40.69
2022-08-01T09:12:20.103Z,40.62
2022-08-01T09:14:50.725Z,40.24
2022-08-01T09:17:18.330Z,39.24
2022-08-01T09:19:54.818Z,39.85
2022-08-01T09:22:25.611Z,39.29
2022-08-01T09:25:03.518Z,38.74
2022-08-01T09:27:32.884Z,37.77
2022-08-01T09:30:23.447Z,38.60
2022-08-01T09:33:11.086Z,37.79
2022-08-01T09:35:54.680Z,37.04
2022-08-01T09:38:25.106Z,37.29
2022-08-01T09:41:02.072Z,38.27
2022-08-01T09:43:32.777Z,36.55
2022-08-01T09:46:06.039Z,36.66
2022-08-01T09:48:33.895Z,37.19
2022-08-01T09:51:07.115Z,36.61
2022-08-01T09:53:51.083Z,36.86
2022-08-01T09:56:22.196Z,36.98
2022-08-01T09:59:01.628Z,36.54
2022-08-01T10:01:45.228Z,37.19
2022-08-01T10:04:21.474Z,37.21
2022-08-01T10:06:55.578Z,37.44
2022-08-01T10:09:40.045Z,37.84
2022-08-01T10:12:15.541Z,38.56
2022-08-01T10:14:46.849Z,40.35
2022-08-01T10:17:22.578Z,37.64
2022-08-01T10:19:51.642Z,37.82
2022-08-01T10:22:21.013Z,37.51
2022-08-01T10:24:51.123Z,36.65
2022-08-01T10:27:24.313Z,35.84
2022-08-01T10:30:16.814Z,37.42
2022-08-01T10:32:53.144Z,36.43
2022-08-01T10:35:45.818Z,36.29
2022-08-01T10:38:13.726Z,34.49
2022-08-01T10:40:44.133Z,34.62
2022-08-01T10:43:13.954Z,34.18
2022-08-01T10:45:51.898Z,34.26
2022-08-01T10:48:26.427Z,33.80
2022-08-01T10:51:01.500Z,33.51
2022-08-01T10:53:31.637Z,34.59
2022-08-01T10:56:13.086Z,33.60
2022-08-01T10:58:45.001Z,33.45
2022-08-01T11:01:31.424Z,33.22
2022-08-01T11:04:05.287Z,32.98
2022-08-01T11:06:35.885Z,32.59
2022-08-01T11:09:37.472Z,32.18
2022-08-01T11:12:23.307Z,32.57
2022-08-01T11:15:02.795Z,33.45
2022-08-01T11:17:42.564Z,33.04
2022-08-01T11:20:16.305Z,32.65
2022-08-01T11:23:05.075Z,31.72
2022-08-01T11:26:03.890Z,33.09
2022-08-01T11:28:35.733Z,31.89
2022-08-01T11:31:13.735Z,32.79
2022-08-01T11:33:41.717Z,31.74
2022-08-01T11:36:12.940Z,31.37
2022-08-01T11:38:45.011Z,31.12
2022-08-01T11:41:38.248Z,31.71
2022-08-01T11:44:18.876Z,30.63
2022-08-01T11:47:09.272Z,30.56
2022-08-01T11:49:38.674Z,30.97
2022-08-01T11:52:12.536Z,31.25
2022-08-01T11:54:49.274Z,31.18
2022-08-01T11:57:23.207Z,30.69
2022-08-01T12:00:03.492Z,30.26
2022-08-01T12:02:41.611Z,30.40
2022-08-01T12:05:15.642Z,30.15
2022-08-01T12:07:46.935Z,31.84
2022-08-01T12:10:18.494Z,31.07
2022-08-01T12:12:52.379Z,29.73
2022-08-01T12:15:23.683Z,31.82
2022-08-01T12:17:59.581Z,30.89
2022-08-01T12:20:38.212Z,30.39
2022-08-01T12:23:10.964Z,30.04
2022-08-01T12:25:44.905Z,29.36
2022-08-01T12:28:16.270Z,30.03
2022-08-01T12:30:43.822Z,30.15
2022-08-01T12:33:17.758Z,30.68
2022-08-01T12:35:45.720Z,30.99
2022-08-01T12:38:17.434Z,29.73
2022-08-01T12:40:51.482Z,28.58
2022-08-01T12:43:28.298Z,29.87
2022-08-01T12:46:00.542Z,28.73
2022-08-01T12:48:32.100Z,29.65
2022-08-01T12:51:03.516Z,30.20
2022-08-01T12:53:40.396Z,29.69
2022-08-01T12:56:13.958Z,28.23
2022-08-01T12:58:41.845Z,29.41
2022-08-01T13:01:12.456Z,28.73
2022-08-01T13:03:41.019Z,28.93
2022-08-01T13:06:16.236Z,28.14
2022-08-01T13:08:45.372Z,28.04
2022-08-01T13:11:17.376Z,27.95
2022-08-01T13:13:52.267Z,28.17
2022-08-01T13:16:43.280Z,28.18
2022-08-01T13:19:14.881Z,28.34
2022-08-01T13:21:58.616Z,27.81
2022-08-01T13:24:30.667Z,28.35
2022-08-01T13:27:05.306Z,27.85
2022-08-01T13:29:41.007Z,28.35
2022-08-01T13:32:30.103Z,27.76
2022-08-01T13:35:09.515Z,28.32
2022-08-01T13:37:39.431Z,28.68
2022-08-01T13:40:09.604Z,27.23
2022-08-01T13:42:38.331Z,27.78
2022-08-01T13:45:14.151Z,29.44
2022-08-01T13:48:12.136Z,29.01
2022-08-01T13:50:34.001Z,29.28
2022-08-01T13:53:01.534Z,28.75
2022-08-01T13:55:34.700Z,28.40
2022-08-01T13:58:03.876Z,28.98
2022-08-01T14:00:31.734Z,29.04
2022-08-01T14:02:59.244Z,29.01
2022-08-01T14:05:27.239Z,28.16
2022-08-01T14:07:56.326Z,29.04
2022-08-01T14:10:25.712Z,29.13
2022-08-01T14:12:56.851Z,27.86
2022-08-01T14:15:38.836Z,27.38
2022-08-01T14:18:10.565Z,27.31
2022-08-01T14:20:41.057Z,27.04
2022-08-01T14:23:09.952Z,26.51
2022-08-01T14:26:01.668Z,27.72
2022-08-01T14:28:31.152Z,27.33
2022-08-01T14:30:59.553Z,26.10
2022-08-01T14:33:28.028Z,26.13
2022-08-01T14:36:06.134Z,25.74
2022-08-01T14:38:46.202Z,25.83
2022-08-01T14:41:15.965Z,25.45
2022-08-01T14:43:44.120Z,25.49
2022-08-01T14:46:13.421Z,25.71
2022-08-01T14:48:41.741Z,25.42
2022-08-01T14:51:09.865Z,24.75
2022-08-01T14:53:38.529Z,25.04
2022-08-01T14:56:08.087Z,25.48
2022-08-01T14:58:35.598Z,25.36
2022-08-01T15:01:03.466Z,24.14
2022-08-01T15:03:32.738Z,24.22
2022-08-01T15:06:00.573Z,23.75
2022-08-01T15:08:28.167Z,23.97
2022-08-01T15:10:55.906Z,24.35
2022-08-01T15:13:23.435Z,24.13
2022-08-01T15:15:50.901Z,24.12
2022-08-01T15:18:18.683Z,24.75
2022-08-01T15:20:46.523Z,24.33
2022-08-01T15:23:14.626Z,24.31
2022-08-01T15:25:42.512Z,23.79
2022-08-01T15:28:13.274Z,24.08
2022-08-01T15:30:41.513Z,23.63
2022-08-01T15:33:09.298Z,23.60
2022-08-01T15:35:36.869Z,23.48
2022-08-01T15:38:04.370Z,23.81
2022-08-01T15:40:35.419Z,23.90
2022-08-01T15:43:03.652Z,24.10
2022-08-01T15:45:47.444Z,24.30
2022-08-01T15:48:17.826Z,23.61
2022-08-01T15:50:46.009Z,24.26
2022-08-01T15:53:13.534Z,24.40
2022-08-01T15:55:41.636Z,24.35
2022-08-01T15:58:14.190Z,24.32
2022-08-01T16:00:42.020Z,24.15
2022-08-01T16:03:10.512Z,23.47
2022-08-01T16:05:43.416Z,23.33
2022-08-01T16:08:13.448Z,23.24
2022-08-01T16:10:41.409Z,24.25
2022-08-01T16:13:09.805Z,24.44
2022-08-01T16:15:39.069Z,25.00
2022-08-01T16:18:10.742Z,25.66
2022-08-01T16:20:44.573Z,26.19
2022-08-01T16:23:15.055Z,25.73
2022-08-01T16:25:44.683Z,26.16
2022-08-01T16:28:14.254Z,26.64
2022-08-01T16:30:48.961Z,27.08
2022-08-01T16:33:42.872Z,27.88
2022-08-01T16:36:18.775Z,28.87
2022-08-01T16:38:47.125Z,29.73
2022-08-01T16:41:19.104Z,30.28
2022-08-01T16:43:53.422Z,30.94
2022-08-01T16:46:25.606Z,31.08
2022-08-01T16:48:54.691Z,30.88
2022-08-01T16:51:22.424Z,31.36
2022-08-01T16:53:50.274Z,31.64
2022-08-01T16:56:18.128Z,32.05
2022-08-01T16:58:46.008Z,32.39
2022-08-01T17:01:59.225Z,32.62
2022-08-01T17:04:02.052Z,33.05
2022-08-01T17:06:30.788Z,33.50
2022-08-01T17:08:58.557Z,33.73
2022-08-01T17:11:26.598Z,33.47
2022-08-01T17:13:54.132Z,33.78
2022-08-01T17:16:22.136Z,33.80
2022-08-01T17:18:49.824Z,33.85
2022-08-01T17:21:18.124Z,33.73
2022-08-01T17:23:45.651Z,33.86
2022-08-01T17:26:13.630Z,33.60
2022-08-01T17:28:41.323Z,34.12
2022-08-01T17:31:10.404Z,34.05
2022-08-01T17:33:46.201Z,34.04
2022-08-01T17:36:21.255Z,34.51
2022-08-01T17:38:49.473Z,34.03
2022-08-01T17:41:16.991Z,34.22
2022-08-01T17:43:44.523Z,34.32
2022-08-01T17:46:12.423Z,34.13
2022-08-01T17:48:40.135Z,34.55
2022-08-01T17:51:07.800Z,34.58
2022-08-01T17:53:35.577Z,34.71
2022-08-01T17:56:09.157Z,34.83
2022-08-01T17:58:51.813Z,35.19
2022-08-01T18:01:20.118Z,34.84
2022-08-01T18:03:48.919Z,35.41
2022-08-01T18:06:19.363Z,35.41
2022-08-01T18:08:48.003Z,35.53
2022-08-01T18:11:17.083Z,35.73
2022-08-01T18:13:45.108Z,36.30
2022-08-01T18:16:13.523Z,37.09
2022-08-01T18:18:42.469Z,38.13
2022-08-01T18:21:12.176Z,38.87
2022-08-01T18:23:40.079Z,38.72
2022-08-01T18:26:12.029Z,39.06
2022-08-01T18:28:46.653Z,39.04
2022-08-01T18:31:17.311Z,39.25
2022-08-01T18:33:45.413Z,39.16
2022-08-01T18:36:23.164Z,39.06
2022-08-01T18:39:06.267Z,40.19
2022-08-01T18:41:39.415Z,39.95
2022-08-01T18:44:08.790Z,40.26
2022-08-01T18:46:40.749Z,39.80
2022-08-01T18:49:12.036Z,40.12
2022-08-01T18:51:44.599Z,39.55
2022-08-01T18:54:15.087Z,40.02
2022-08-01T18:56:44.179Z,39.77
2022-08-01T18:59:12.426Z,39.59
2022-08-01T19:01:40.565Z,39.31
2022-08-01T19:04:08.811Z,39.12
2022-08-01T19:06:37.930Z,39.83
2022-08-01T19:09:06.297Z,39.90
2022-08-01T19:11:34.806Z,39.82
2022-08-01T19:14:03.295Z,40.09
2022-08-01T19:16:31.317Z,40.34
2022-08-01T19:18:58.880Z,40.77
2022-08-01T19:21:26.509Z,40.70
2022-08-01T19:24:13.135Z,40.58
2022-08-01T19:26:45.676Z,40.36
2022-08-01T19:29:21.803Z,40.38
2022-08-01T19:31:51.274Z,40.64
2022-08-01T19:34:26.555Z,40.76
2022-08-01T19:36:58.511Z,40.96
2022-08-01T19:39:27.813Z,41.03
2022-08-01T19:41:57.880Z,41.13
2022-08-01T19:44:28.921Z,41.66
2022-08-01T19:46:57.302Z,41.39
2022-08-01T19:49:24.938Z,41.88
2022-08-01T19:52:01.273Z,41.77
2022-08-01T19:54:45.523Z,41.86
2022-08-01T19:57:15.898Z,42.01
2022-08-01T19:59:46.638Z,42.06
2022-08-01T20:02:20.093Z,42.34
2022-08-01T20:04:48.874Z,42.97
2022-08-01T20:07:16.488Z,42.56
2022-08-01T20:09:48.286Z,42.90
2022-08-01T20:12:20.102Z,43.02
2022-08-01T20:14:51.726Z,42.91
2022-08-01T20:17:21.808Z,43.07
2022-08-01T20:19:50.986Z,43.19
2022-08-01T20:22:21.373Z,43.29
2022-08-01T20:24:57.707Z,43.27
2022-08-01T20:27:27.526Z,42.93
2022-08-01T20:30:00.315Z,43.29
2022-08-01T20:32:37.383Z,42.95
2022-08-01T20:35:06.545Z,43.18
2022-08-01T20:38:03.718Z,42.98
2022-08-01T20:40:30.377Z,43.28
2022-08-01T20:42:59.206Z,43.66
2022-08-01T20:45:27.615Z,43.28
2022-08-01T20:47:58.058Z,43.34
2022-08-01T20:50:53.794Z,43.24
2022-08-01T20:53:24.389Z,43.18
2022-08-01T20:56:06.577Z,43.17
2022-08-01T20:59:09.763Z,43.34
2022-08-01T21:01:49.809Z,43.87
2022-08-01T21:04:48.581Z,43.96
2022-08-01T21:07:33.100Z,43.98
2022-08-01T21:10:09.641Z,44.37
2022-08-01T21:13:06.577Z,44.45
2022-08-01T21:16:22.139Z,44.60
2022-08-01T21:19:16.784Z,44.97
2022-08-01T21:21:40.130Z,45.21
2022-08-01T21:24:18.433Z,45.44
2022-08-01T21:26:46.938Z,45.63
2022-08-01T21:29:15.394Z,45.69
2022-08-01T21:31:46.201Z,45.82
2022-08-01T21:34:16.016Z,45.81
2022-08-01T21:36:45.709Z,46.33
2022-08-01T21:39:13.589Z,45.98
2022-08-01T21:42:03.258Z,45.91
2022-08-01T21:44:32.995Z,45.80
2022-08-01T21:47:01.121Z,45.93
2022-08-01T21:49:28.730Z,45.62
2022-08-01T21:52:18.113Z,45.37
2022-08-01T21:55:16.573Z,45.34
2022-08-01T21:58:23.996Z,45.63
2022-08-01T22:01:01.562Z,45.87
2022-08-01T22:03:48.737Z,45.48
2022-08-01T22:06:21.039Z,45.57
2022-08-01T22:08:56.473Z,45.65
2022-08-01T22:11:30.864Z,45.66
2022-08-01T22:14:11.915Z,46.02
2022-08-01T22:16:41.594Z,45.87
2022-08-01T22:19:09.825Z,46.46
2022-08-01T22:21:57.750Z,45.32
2022-08-01T22:24:26.064Z,45.63
2022-08-01T22:26:55.609Z,45.38
2022-08-01T22:29:23.826Z,45.53
2022-08-01T22:31:56.824Z,45.71
2022-08-01T22:34:26.685Z,45.81
2022-08-01T22:36:56.082Z,45.80
2022-08-01T22:39:25.890Z,45.86
2022-08-01T22:42:01.793Z,45.51
2022-08-01T22:45:30.883Z,46.23
2022-08-01T22:48:24.935Z,45.84
2022-08-01T22:51:04.023Z,45.89
2022-08-01T22:53:47.276Z,45.21
2022-08-01T22:56:15.088Z,45.90
2022-08-01T22:58:44.696Z,46.16
2022-08-01T23:01:21.878Z,46.38
2022-08-01T23:03:56.582Z,46.71
2022-08-01T23:06:42.055Z,47.05
2022-08-01T23:09:10.520Z,47.08
2022-08-01T23:11:39.513Z,47.38
2022-08-01T23:14:07.312Z,47.04
2022-08-01T23:16:36.914Z,47.22
2022-08-01T23:19:04.560Z,47.18
2022-08-01T23:21:33.232Z,48.02
2022-08-01T23:24:03.065Z,47.94
2022-08-01T23:26:32.244Z,47.90
2022-08-01T23:29:00.669Z,47.94
2022-08-01T23:32:00.420Z,47.41
2022-08-01T23:34:20.024Z,46.29
2022-08-01T23:36:48.006Z,46.25
2022-08-01T23:39:15.621Z,45.95
2022-08-01T23:41:57.366Z,45.85
2022-08-01T23:44:30.976Z,46.21
2022-08-01T23:46:58.618Z,46.29
2022-08-01T23:49:26.336Z,46.39
2022-08-01T23:51:54.259Z,46.44
2022-08-01T23:54:22.008Z,46.46
2022-08-01T23:56:52.065Z,46.73
2022-08-01T23:59:20.383Z,46.48
